sensor_id;sensor_type;location;lat;lon;timestamp;P1;durP1;ratioP1;P2;durP2;ratioP2
58992;SDS011;44782;0.000;0.000;2023-12-20T00:04:14;1.63;;;1.40;;
58992;SDS011;44782;0.000;0.000;2023-12-20T00:06:30;1.30;;;1.20;;
58992;SDS011;44782;0.000;0.000;2023-12-20T00:08:46;1.87;;;1.60;;
58992;SDS011;44782;0.000;0.000;2023-12-20T00:11:01;1.20;;;1.10;;
58992;SDS011;44782;0.000;0.000;2023-12-20T00:13:17;1.30;;;1.20;;
58992;SDS011;44782;0.000;0.000;2023-12-20T00:15:33;1.70;;;1.40;;
58992;SDS011;44782;0.000;0.000;2023-12-20T00:17:49;1.57;;;1.47;;
58992;SDS011;44782;0.000;0.000;2023-12-20T00:20:05;1.40;;;1.30;;
58992;SDS011;44782;0.000;0.000;2023-12-20T00:22:21;1.90;;;1.40;;
58992;SDS011;44782;0.000;0.000;2023-12-20T00:24:37;1.50;;;1.30;;
58992;SDS011;44782;0.000;0.000;2023-12-20T00:26:52;1.40;;;1.30;;
58992;SDS011;44782;0.000;0.000;2023-12-20T00:29:08;1.50;;;1.40;;
58992;SDS011;44782;0.000;0.000;2023-12-20T00:31:23;1.63;;;1.50;;
58992;SDS011;44782;0.000;0.000;2023-12-20T00:33:39;1.30;;;1.20;;
58992;SDS011;44782;0.000;0.000;2023-12-20T00:35:58;1.63;;;1.37;;
58992;SDS011;44782;0.000;0.000;2023-12-20T00:38:14;1.87;;;1.60;;
58992;SDS011;44782;0.000;0.000;2023-12-20T00:40:29;1.40;;;1.30;;
58992;SDS011;44782;0.000;0.000;2023-12-20T00:42:45;1.87;;;1.30;;
58992;SDS011;44782;0.000;0.000;2023-12-20T00:45:02;1.47;;;1.37;;
58992;SDS011;44782;0.000;0.000;2023-12-20T00:47:19;1.53;;;1.43;;
58992;SDS011;44782;0.000;0.000;2023-12-20T00:49:35;1.63;;;1.50;;
58992;SDS011;44782;0.000;0.000;2023-12-20T00:51:51;1.50;;;1.40;;
58992;SDS011;44782;0.000;0.000;2023-12-20T00:54:07;1.40;;;1.30;;
58992;SDS011;44782;0.000;0.000;2023-12-20T00:56:24;1.77;;;1.50;;
58992;SDS011;44782;0.000;0.000;2023-12-20T00:58:39;1.77;;;1.60;;
58992;SDS011;44782;0.000;0.000;2023-12-20T01:00:55;1.43;;;1.30;;
58992;SDS011;44782;0.000;0.000;2023-12-20T01:03:11;1.23;;;1.13;;
58992;SDS011;44782;0.000;0.000;2023-12-20T01:05:26;1.40;;;1.30;;
58992;SDS011;44782;0.000;0.000;2023-12-20T01:07:42;1.50;;;1.30;;
58992;SDS011;44782;0.000;0.000;2023-12-20T01:09:58;1.47;;;1.27;;
58992;SDS011;44782;0.000;0.000;2023-12-20T01:12:13;1.87;;;1.27;;
58992;SDS011;44782;0.000;0.000;2023-12-20T01:14:29;1.57;;;1.37;;
58992;SDS011;44782;0.000;0.000;2023-12-20T01:16:45;1.33;;;1.23;;
58992;SDS011;44782;0.000;0.000;2023-12-20T01:19:01;2.00;;;1.47;;
58992;SDS011;44782;0.000;0.000;2023-12-20T01:21:16;1.30;;;1.20;;
58992;SDS011;44782;0.000;0.000;2023-12-20T01:23:32;1.83;;;1.30;;
58992;SDS011;44782;0.000;0.000;2023-12-20T01:25:48;1.60;;;1.20;;
58992;SDS011;44782;0.000;0.000;2023-12-20T01:28:04;1.53;;;1.33;;
58992;SDS011;44782;0.000;0.000;2023-12-20T01:30:19;1.20;;;1.10;;
58992;SDS011;44782;0.000;0.000;2023-12-20T01:32:35;1.40;;;1.10;;
58992;SDS011;44782;0.000;0.000;2023-12-20T01:34:51;1.60;;;1.40;;
58992;SDS011;44782;0.000;0.000;2023-12-20T01:37:07;1.70;;;1.50;;
58992;SDS011;44782;0.000;0.000;2023-12-20T01:39:22;1.40;;;1.30;;
58992;SDS011;44782;0.000;0.000;2023-12-20T01:41:38;2.00;;;1.50;;
58992;SDS011;44782;0.000;0.000;2023-12-20T01:43:54;1.40;;;1.30;;
58992;SDS011;44782;0.000;0.000;2023-12-20T01:46:09;1.20;;;1.10;;
58992;SDS011;44782;0.000;0.000;2023-12-20T01:48:27;1.70;;;1.27;;
58992;SDS011;44782;0.000;0.000;2023-12-20T01:50:44;1.20;;;1.07;;
58992;SDS011;44782;0.000;0.000;2023-12-20T01:53:00;1.40;;;1.30;;
58992;SDS011;44782;0.000;0.000;2023-12-20T01:55:18;1.43;;;1.10;;
58992;SDS011;44782;0.000;0.000;2023-12-20T01:57:34;1.30;;;1.20;;
58992;SDS011;44782;0.000;0.000;2023-12-20T01:59:50;1.70;;;1.40;;
58992;SDS011;44782;0.000;0.000;2023-12-20T02:02:06;1.63;;;1.47;;
58992;SDS011;44782;0.000;0.000;2023-12-20T02:04:23;2.20;;;1.20;;
58992;SDS011;44782;0.000;0.000;2023-12-20T02:06:39;1.37;;;1.23;;
58992;SDS011;44782;0.000;0.000;2023-12-20T02:08:55;1.63;;;1.40;;
58992;SDS011;44782;0.000;0.000;2023-12-20T02:11:12;1.33;;;1.23;;
58992;SDS011;44782;0.000;0.000;2023-12-20T02:13:28;1.43;;;1.30;;
58992;SDS011;44782;0.000;0.000;2023-12-20T02:15:43;1.33;;;1.23;;
58992;SDS011;44782;0.000;0.000;2023-12-20T02:17:59;1.40;;;1.30;;
58992;SDS011;44782;0.000;0.000;2023-12-20T02:20:15;1.77;;;1.30;;
58992;SDS011;44782;0.000;0.000;2023-12-20T02:22:31;1.40;;;1.30;;
58992;SDS011;44782;0.000;0.000;2023-12-20T02:24:47;2.13;;;1.23;;
58992;SDS011;44782;0.000;0.000;2023-12-20T02:27:02;1.30;;;1.20;;
58992;SDS011;44782;0.000;0.000;2023-12-20T02:29:20;1.43;;;1.30;;
58992;SDS011;44782;0.000;0.000;2023-12-20T02:31:36;1.30;;;1.20;;
58992;SDS011;44782;0.000;0.000;2023-12-20T02:33:52;2.20;;;1.40;;
58992;SDS011;44782;0.000;0.000;2023-12-20T02:36:07;1.70;;;1.30;;
58992;SDS011;44782;0.000;0.000;2023-12-20T02:38:23;1.30;;;1.20;;
58992;SDS011;44782;0.000;0.000;2023-12-20T02:40:39;1.83;;;1.20;;
58992;SDS011;44782;0.000;0.000;2023-12-20T02:42:54;1.57;;;1.40;;
58992;SDS011;44782;0.000;0.000;2023-12-20T02:45:10;1.30;;;1.20;;
58992;SDS011;44782;0.000;0.000;2023-12-20T02:47:26;1.10;;;1.10;;
58992;SDS011;44782;0.000;0.000;2023-12-20T02:49:41;1.47;;;1.37;;
58992;SDS011;44782;0.000;0.000;2023-12-20T02:51:57;1.40;;;1.30;;
58992;SDS011;44782;0.000;0.000;2023-12-20T02:54:13;1.40;;;1.30;;
58992;SDS011;44782;0.000;0.000;2023-12-20T02:56:29;2.60;;;1.40;;
58992;SDS011;44782;0.000;0.000;2023-12-20T02:58:45;1.30;;;1.20;;
58992;SDS011;44782;0.000;0.000;2023-12-20T03:01:00;1.47;;;1.37;;
58992;SDS011;44782;0.000;0.000;2023-12-20T03:03:16;1.43;;;1.33;;
58992;SDS011;44782;0.000;0.000;2023-12-20T03:05:32;1.20;;;1.10;;
58992;SDS011;44782;0.000;0.000;2023-12-20T03:07:48;1.90;;;1.40;;
58992;SDS011;44782;0.000;0.000;2023-12-20T03:10:04;1.40;;;1.30;;
58992;SDS011;44782;0.000;0.000;2023-12-20T03:12:22;1.50;;;1.30;;
58992;SDS011;44782;0.000;0.000;2023-12-20T03:14:38;1.40;;;1.20;;
58992;SDS011;44782;0.000;0.000;2023-12-20T03:16:54;1.33;;;1.20;;
58992;SDS011;44782;0.000;0.000;2023-12-20T03:19:10;1.40;;;1.30;;
58992;SDS011;44782;0.000;0.000;2023-12-20T03:21:26;1.57;;;1.20;;
58992;SDS011;44782;0.000;0.000;2023-12-20T03:23:41;1.50;;;1.40;;
58992;SDS011;44782;0.000;0.000;2023-12-20T03:25:58;1.20;;;1.10;;
58992;SDS011;44782;0.000;0.000;2023-12-20T03:28:14;2.13;;;1.30;;
58992;SDS011;44782;0.000;0.000;2023-12-20T03:30:31;1.23;;;1.13;;
58992;SDS011;44782;0.000;0.000;2023-12-20T03:32:47;1.37;;;1.23;;
58992;SDS011;44782;0.000;0.000;2023-12-20T03:35:03;1.60;;;1.50;;
58992;SDS011;44782;0.000;0.000;2023-12-20T03:37:19;1.30;;;1.20;;
58992;SDS011;44782;0.000;0.000;2023-12-20T03:39:34;1.43;;;1.20;;
58992;SDS011;44782;0.000;0.000;2023-12-20T03:41:50;1.37;;;1.27;;
58992;SDS011;44782;0.000;0.000;2023-12-20T03:44:06;1.70;;;1.30;;
58992;SDS011;44782;0.000;0.000;2023-12-20T03:46:21;1.70;;;1.30;;
58992;SDS011;44782;0.000;0.000;2023-12-20T03:48:37;1.40;;;1.30;;
58992;SDS011;44782;0.000;0.000;2023-12-20T03:50:53;2.23;;;1.50;;
58992;SDS011;44782;0.000;0.000;2023-12-20T03:53:08;1.40;;;1.30;;
58992;SDS011;44782;0.000;0.000;2023-12-20T03:55:25;1.43;;;1.33;;
58992;SDS011;44782;0.000;0.000;2023-12-20T03:57:41;1.37;;;1.27;;
58992;SDS011;44782;0.000;0.000;2023-12-20T03:59:56;1.30;;;1.20;;
58992;SDS011;44782;0.000;0.000;2023-12-20T04:02:12;1.30;;;1.20;;
58992;SDS011;44782;0.000;0.000;2023-12-20T04:04:28;1.70;;;1.57;;
58992;SDS011;44782;0.000;0.000;2023-12-20T04:06:43;1.37;;;1.10;;
58992;SDS011;44782;0.000;0.000;2023-12-20T04:08:59;1.30;;;1.20;;
58992;SDS011;44782;0.000;0.000;2023-12-20T04:11:15;1.80;;;1.40;;
58992;SDS011;44782;0.000;0.000;2023-12-20T04:13:30;1.20;;;1.10;;
58992;SDS011;44782;0.000;0.000;2023-12-20T04:15:46;1.20;;;1.10;;
58992;SDS011;44782;0.000;0.000;2023-12-20T04:18:03;1.47;;;1.37;;
58992;SDS011;44782;0.000;0.000;2023-12-20T04:20:18;1.23;;;1.13;;
58992;SDS011;44782;0.000;0.000;2023-12-20T04:22:34;1.33;;;1.20;;
58992;SDS011;44782;0.000;0.000;2023-12-20T04:24:50;1.73;;;1.37;;
58992;SDS011;44782;0.000;0.000;2023-12-20T04:27:05;1.87;;;1.40;;
58992;SDS011;44782;0.000;0.000;2023-12-20T04:29:21;1.43;;;1.33;;
58992;SDS011;44782;0.000;0.000;2023-12-20T04:31:37;1.40;;;1.20;;
58992;SDS011;44782;0.000;0.000;2023-12-20T04:33:52;1.30;;;1.10;;
58992;SDS011;44782;0.000;0.000;2023-12-20T04:36:08;1.50;;;1.40;;
58992;SDS011;44782;0.000;0.000;2023-12-20T04:38:24;1.33;;;1.23;;
58992;SDS011;44782;0.000;0.000;2023-12-20T04:40:40;2.50;;;1.40;;
58992;SDS011;44782;0.000;0.000;2023-12-20T04:42:56;1.37;;;1.27;;
58992;SDS011;44782;0.000;0.000;2023-12-20T04:45:11;1.50;;;1.30;;
58992;SDS011;44782;0.000;0.000;2023-12-20T04:47:28;1.40;;;1.30;;
58992;SDS011;44782;0.000;0.000;2023-12-20T04:49:44;1.60;;;1.20;;
58992;SDS011;44782;0.000;0.000;2023-12-20T04:51:59;1.40;;;1.30;;
58992;SDS011;44782;0.000;0.000;2023-12-20T04:54:15;1.40;;;1.30;;
58992;SDS011;44782;0.000;0.000;2023-12-20T04:56:31;1.50;;;1.30;;
58992;SDS011;44782;0.000;0.000;2023-12-20T04:58:46;1.53;;;1.20;;
58992;SDS011;44782;0.000;0.000;2023-12-20T05:01:03;1.37;;;1.20;;
58992;SDS011;44782;0.000;0.000;2023-12-20T05:03:20;1.30;;;1.20;;
58992;SDS011;44782;0.000;0.000;2023-12-20T05:05:36;1.30;;;1.20;;
58992;SDS011;44782;0.000;0.000;2023-12-20T05:07:53;1.23;;;1.13;;
58992;SDS011;44782;0.000;0.000;2023-12-20T05:10:08;1.40;;;1.30;;
58992;SDS011;44782;0.000;0.000;2023-12-20T05:12:24;1.50;;;1.40;;
58992;SDS011;44782;0.000;0.000;2023-12-20T05:14:40;1.53;;;1.40;;
58992;SDS011;44782;0.000;0.000;2023-12-20T05:16:56;1.20;;;1.10;;
58992;SDS011;44782;0.000;0.000;2023-12-20T05:19:11;1.40;;;1.30;;
58992;SDS011;44782;0.000;0.000;2023-12-20T05:21:27;1.27;;;1.10;;
58992;SDS011;44782;0.000;0.000;2023-12-20T05:23:43;1.50;;;1.40;;
58992;SDS011;44782;0.000;0.000;2023-12-20T05:25:58;1.23;;;1.13;;
58992;SDS011;44782;0.000;0.000;2023-12-20T05:28:15;1.40;;;1.20;;
58992;SDS011;44782;0.000;0.000;2023-12-20T05:30:30;1.33;;;1.20;;
58992;SDS011;44782;0.000;0.000;2023-12-20T05:32:46;1.30;;;1.20;;
58992;SDS011;44782;0.000;0.000;2023-12-20T05:35:02;1.97;;;1.20;;
58992;SDS011;44782;0.000;0.000;2023-12-20T05:37:18;1.20;;;1.10;;
58992;SDS011;44782;0.000;0.000;2023-12-20T05:39:34;1.40;;;1.30;;
58992;SDS011;44782;0.000;0.000;2023-12-20T05:41:49;1.13;;;1.03;;
58992;SDS011;44782;0.000;0.000;2023-12-20T05:44:05;1.27;;;1.17;;
58992;SDS011;44782;0.000;0.000;2023-12-20T05:46:21;1.20;;;1.00;;
58992;SDS011;44782;0.000;0.000;2023-12-20T05:48:36;1.57;;;1.30;;
58992;SDS011;44782;0.000;0.000;2023-12-20T05:50:52;1.30;;;1.20;;
58992;SDS011;44782;0.000;0.000;2023-12-20T05:53:08;1.50;;;1.40;;
58992;SDS011;44782;0.000;0.000;2023-12-20T05:55:23;1.50;;;1.33;;
58992;SDS011;44782;0.000;0.000;2023-12-20T05:57:39;1.73;;;1.37;;
58992;SDS011;44782;0.000;0.000;2023-12-20T05:59:55;1.43;;;1.20;;
58992;SDS011;44782;0.000;0.000;2023-12-20T06:02:10;1.40;;;1.30;;
58992;SDS011;44782;0.000;0.000;2023-12-20T06:04:26;1.53;;;1.40;;
58992;SDS011;44782;0.000;0.000;2023-12-20T06:06:42;1.53;;;1.43;;
58992;SDS011;44782;0.000;0.000;2023-12-20T06:08:58;1.40;;;1.30;;
58992;SDS011;44782;0.000;0.000;2023-12-20T06:11:14;1.40;;;1.30;;
58992;SDS011;44782;0.000;0.000;2023-12-20T06:13:30;1.20;;;1.10;;
58992;SDS011;44782;0.000;0.000;2023-12-20T06:15:46;1.40;;;1.30;;
58992;SDS011;44782;0.000;0.000;2023-12-20T06:18:01;1.60;;;1.50;;
58992;SDS011;44782;0.000;0.000;2023-12-20T06:20:17;1.50;;;1.40;;
58992;SDS011;44782;0.000;0.000;2023-12-20T06:22:34;1.60;;;1.50;;
58992;SDS011;44782;0.000;0.000;2023-12-20T06:24:50;1.47;;;1.37;;
58992;SDS011;44782;0.000;0.000;2023-12-20T06:27:06;1.30;;;1.20;;
58992;SDS011;44782;0.000;0.000;2023-12-20T06:29:22;1.33;;;1.20;;
58992;SDS011;44782;0.000;0.000;2023-12-20T06:31:37;1.70;;;1.30;;
58992;SDS011;44782;0.000;0.000;2023-12-20T06:33:53;1.23;;;1.13;;
58992;SDS011;44782;0.000;0.000;2023-12-20T06:36:12;1.63;;;1.20;;
58992;SDS011;44782;0.000;0.000;2023-12-20T06:38:28;1.30;;;1.20;;
58992;SDS011;44782;0.000;0.000;2023-12-20T06:40:44;1.60;;;1.20;;
58992;SDS011;44782;0.000;0.000;2023-12-20T06:43:00;1.53;;;1.40;;
58992;SDS011;44782;0.000;0.000;2023-12-20T06:45:16;1.20;;;1.10;;
58992;SDS011;44782;0.000;0.000;2023-12-20T06:47:31;1.30;;;1.20;;
58992;SDS011;44782;0.000;0.000;2023-12-20T06:49:47;2.60;;;1.40;;
58992;SDS011;44782;0.000;0.000;2023-12-20T06:52:03;1.50;;;1.33;;
58992;SDS011;44782;0.000;0.000;2023-12-20T06:54:18;1.50;;;1.40;;
58992;SDS011;44782;0.000;0.000;2023-12-20T06:56:34;1.50;;;1.20;;
58992;SDS011;44782;0.000;0.000;2023-12-20T06:58:50;1.60;;;1.37;;
58992;SDS011;44782;0.000;0.000;2023-12-20T07:01:07;1.30;;;1.20;;
58992;SDS011;44782;0.000;0.000;2023-12-20T07:03:29;1.63;;;1.30;;
58992;SDS011;44782;0.000;0.000;2023-12-20T07:05:44;1.50;;;1.40;;
58992;SDS011;44782;0.000;0.000;2023-12-20T07:08:01;1.50;;;1.40;;
58992;SDS011;44782;0.000;0.000;2023-12-20T07:10:16;1.50;;;1.40;;
58992;SDS011;44782;0.000;0.000;2023-12-20T07:12:32;2.27;;;1.50;;
58992;SDS011;44782;0.000;0.000;2023-12-20T07:14:51;1.63;;;1.40;;
58992;SDS011;44782;0.000;0.000;2023-12-20T07:17:06;1.60;;;1.50;;
58992;SDS011;44782;0.000;0.000;2023-12-20T07:19:26;1.90;;;1.63;;
58992;SDS011;44782;0.000;0.000;2023-12-20T07:21:42;2.60;;;1.67;;
58992;SDS011;44782;0.000;0.000;2023-12-20T07:23:57;1.70;;;1.60;;
58992;SDS011;44782;0.000;0.000;2023-12-20T07:26:13;1.97;;;1.80;;
58992;SDS011;44782;0.000;0.000;2023-12-20T07:28:28;1.67;;;1.57;;
58992;SDS011;44782;0.000;0.000;2023-12-20T07:30:44;1.97;;;1.60;;
58992;SDS011;44782;0.000;0.000;2023-12-20T07:33:00;1.60;;;1.50;;
58992;SDS011;44782;0.000;0.000;2023-12-20T07:35:16;1.63;;;1.53;;
58992;SDS011;44782;0.000;0.000;2023-12-20T07:37:31;1.50;;;1.40;;
58992;SDS011;44782;0.000;0.000;2023-12-20T07:39:47;1.87;;;1.73;;
58992;SDS011;44782;0.000;0.000;2023-12-20T07:42:03;1.83;;;1.60;;
58992;SDS011;44782;0.000;0.000;2023-12-20T07:44:18;1.80;;;1.70;;
58992;SDS011;44782;0.000;0.000;2023-12-20T07:46:34;1.60;;;1.50;;
58992;SDS011;44782;0.000;0.000;2023-12-20T07:48:50;1.80;;;1.53;;
58992;SDS011;44782;0.000;0.000;2023-12-20T07:51:05;1.70;;;1.50;;
58992;SDS011;44782;0.000;0.000;2023-12-20T07:53:23;1.77;;;1.60;;
58992;SDS011;44782;0.000;0.000;2023-12-20T07:55:39;1.57;;;1.47;;
58992;SDS011;44782;0.000;0.000;2023-12-20T07:57:54;1.50;;;1.40;;
58992;SDS011;44782;0.000;0.000;2023-12-20T08:00:10;1.60;;;1.50;;
58992;SDS011;44782;0.000;0.000;2023-12-20T08:02:26;1.70;;;1.43;;
58992;SDS011;44782;0.000;0.000;2023-12-20T08:04:42;1.50;;;1.40;;
58992;SDS011;44782;0.000;0.000;2023-12-20T08:06:57;1.70;;;1.50;;
58992;SDS011;44782;0.000;0.000;2023-12-20T08:09:13;1.93;;;1.50;;
58992;SDS011;44782;0.000;0.000;2023-12-20T08:11:29;2.80;;;1.50;;
58992;SDS011;44782;0.000;0.000;2023-12-20T08:13:44;1.40;;;1.30;;
58992;SDS011;44782;0.000;0.000;2023-12-20T08:16:00;1.77;;;1.50;;
58992;SDS011;44782;0.000;0.000;2023-12-20T08:18:18;1.70;;;1.50;;
58992;SDS011;44782;0.000;0.000;2023-12-20T08:20:33;1.57;;;1.47;;
58992;SDS011;44782;0.000;0.000;2023-12-20T08:22:49;1.60;;;1.50;;
58992;SDS011;44782;0.000;0.000;2023-12-20T08:25:05;1.73;;;1.50;;
58992;SDS011;44782;0.000;0.000;2023-12-20T08:27:21;1.90;;;1.50;;
58992;SDS011;44782;0.000;0.000;2023-12-20T08:29:36;1.67;;;1.50;;
58992;SDS011;44782;0.000;0.000;2023-12-20T08:31:52;1.50;;;1.40;;
58992;SDS011;44782;0.000;0.000;2023-12-20T08:34:11;1.60;;;1.37;;
58992;SDS011;44782;0.000;0.000;2023-12-20T08:36:29;1.60;;;1.50;;
58992;SDS011;44782;0.000;0.000;2023-12-20T08:38:44;1.60;;;1.50;;
58992;SDS011;44782;0.000;0.000;2023-12-20T08:41:00;2.57;;;1.70;;
58992;SDS011;44782;0.000;0.000;2023-12-20T08:43:17;2.33;;;1.80;;
58992;SDS011;44782;0.000;0.000;2023-12-20T08:45:33;1.87;;;1.70;;
58992;SDS011;44782;0.000;0.000;2023-12-20T08:47:49;2.00;;;1.70;;
58992;SDS011;44782;0.000;0.000;2023-12-20T08:50:05;1.87;;;1.53;;
58992;SDS011;44782;0.000;0.000;2023-12-20T08:52:21;1.80;;;1.70;;
58992;SDS011;44782;0.000;0.000;2023-12-20T08:54:38;2.33;;;1.97;;
58992;SDS011;44782;0.000;0.000;2023-12-20T08:56:53;2.57;;;1.97;;
58992;SDS011;44782;0.000;0.000;2023-12-20T08:59:09;2.00;;;1.80;;
58992;SDS011;44782;0.000;0.000;2023-12-20T09:01:25;1.83;;;1.67;;
58992;SDS011;44782;0.000;0.000;2023-12-20T09:03:40;2.33;;;1.90;;
58992;SDS011;44782;0.000;0.000;2023-12-20T09:05:56;2.03;;;1.83;;
58992;SDS011;44782;0.000;0.000;2023-12-20T09:08:12;2.20;;;1.77;;
58992;SDS011;44782;0.000;0.000;2023-12-20T09:12:43;2.77;;;1.97;;
58992;SDS011;44782;0.000;0.000;2023-12-20T09:14:58;2.00;;;1.80;;
58992;SDS011;44782;0.000;0.000;2023-12-20T09:17:16;2.57;;;2.37;;
58992;SDS011;44782;0.000;0.000;2023-12-20T09:19:33;3.00;;;2.50;;
58992;SDS011;44782;0.000;0.000;2023-12-20T09:21:48;3.17;;;2.83;;
58992;SDS011;44782;0.000;0.000;2023-12-20T09:24:04;3.20;;;2.90;;
58992;SDS011;44782;0.000;0.000;2023-12-20T09:26:20;2.60;;;2.33;;
58992;SDS011;44782;0.000;0.000;2023-12-20T09:28:35;2.53;;;2.33;;
58992;SDS011;44782;0.000;0.000;2023-12-20T09:30:52;2.30;;;2.10;;
58992;SDS011;44782;0.000;0.000;2023-12-20T09:33:07;3.57;;;2.00;;
58992;SDS011;44782;0.000;0.000;2023-12-20T09:35:23;2.73;;;1.80;;
58992;SDS011;44782;0.000;0.000;2023-12-20T09:37:39;3.00;;;2.30;;
58992;SDS011;44782;0.000;0.000;2023-12-20T09:39:58;2.63;;;2.40;;
58992;SDS011;44782;0.000;0.000;2023-12-20T09:42:16;2.30;;;2.10;;
58992;SDS011;44782;0.000;0.000;2023-12-20T09:44:38;2.67;;;2.00;;
58992;SDS011;44782;0.000;0.000;2023-12-20T09:46:57;3.00;;;2.30;;
58992;SDS011;44782;0.000;0.000;2023-12-20T09:49:13;2.83;;;1.87;;
58992;SDS011;44782;0.000;0.000;2023-12-20T09:51:29;2.40;;;2.20;;
58992;SDS011;44782;0.000;0.000;2023-12-20T09:53:45;3.40;;;2.13;;
58992;SDS011;44782;0.000;0.000;2023-12-20T09:56:02;2.20;;;2.00;;
58992;SDS011;44782;0.000;0.000;2023-12-20T09:58:18;3.03;;;2.20;;
58992;SDS011;44782;0.000;0.000;2023-12-20T10:00:35;2.93;;;2.10;;
58992;SDS011;44782;0.000;0.000;2023-12-20T10:02:57;2.10;;;1.90;;
58992;SDS011;44782;0.000;0.000;2023-12-20T10:05:15;4.47;;;2.27;;
58992;SDS011;44782;0.000;0.000;2023-12-20T10:07:34;5.00;;;2.27;;
58992;SDS011;44782;0.000;0.000;2023-12-20T10:09:51;4.63;;;2.00;;
58992;SDS011;44782;0.000;0.000;2023-12-20T10:12:10;3.23;;;2.07;;
58992;SDS011;44782;0.000;0.000;2023-12-20T10:14:26;4.80;;;2.20;;
58992;SDS011;44782;0.000;0.000;2023-12-20T10:16:42;3.47;;;2.10;;
58992;SDS011;44782;0.000;0.000;2023-12-20T10:18:58;2.33;;;2.07;;
58992;SDS011;44782;0.000;0.000;2023-12-20T10:21:16;3.90;;;2.30;;
58992;SDS011;44782;0.000;0.000;2023-12-20T10:23:33;3.33;;;2.07;;
58992;SDS011;44782;0.000;0.000;2023-12-20T10:25:55;5.63;;;2.27;;
58992;SDS011;44782;0.000;0.000;2023-12-20T10:28:15;4.57;;;2.20;;
58992;SDS011;44782;0.000;0.000;2023-12-20T10:30:37;2.30;;;2.10;;
58992;SDS011;44782;0.000;0.000;2023-12-20T10:32:54;2.87;;;2.00;;
58992;SDS011;44782;0.000;0.000;2023-12-20T10:35:09;3.17;;;2.30;;
58992;SDS011;44782;0.000;0.000;2023-12-20T10:37:25;3.13;;;2.17;;
58992;SDS011;44782;0.000;0.000;2023-12-20T10:41:56;2.70;;;2.03;;
58992;SDS011;44782;0.000;0.000;2023-12-20T10:44:11;3.33;;;2.20;;
58992;SDS011;44782;0.000;0.000;2023-12-20T10:46:29;3.83;;;2.10;;
58992;SDS011;44782;0.000;0.000;2023-12-20T10:48:45;2.57;;;2.10;;
58992;SDS011;44782;0.000;0.000;2023-12-20T10:51:02;2.83;;;2.10;;
58992;SDS011;44782;0.000;0.000;2023-12-20T10:53:19;2.53;;;1.87;;
58992;SDS011;44782;0.000;0.000;2023-12-20T10:55:35;2.80;;;1.80;;
58992;SDS011;44782;0.000;0.000;2023-12-20T10:57:51;3.23;;;2.10;;
58992;SDS011;44782;0.000;0.000;2023-12-20T11:00:08;2.77;;;2.00;;
58992;SDS011;44782;0.000;0.000;2023-12-20T11:02:27;2.60;;;1.87;;
58992;SDS011;44782;0.000;0.000;2023-12-20T11:07:12;2.30;;;2.07;;
58992;SDS011;44782;0.000;0.000;2023-12-20T11:09:45;2.67;;;1.90;;
58992;SDS011;44782;0.000;0.000;2023-12-20T11:12:23;2.53;;;2.17;;
58992;SDS011;44782;0.000;0.000;2023-12-20T11:14:50;2.97;;;1.80;;
58992;SDS011;44782;0.000;0.000;2023-12-20T11:17:15;3.00;;;2.10;;
58992;SDS011;44782;0.000;0.000;2023-12-20T11:19:32;2.87;;;1.87;;
58992;SDS011;44782;0.000;0.000;2023-12-20T11:21:47;3.47;;;2.03;;
58992;SDS011;44782;0.000;0.000;2023-12-20T11:24:03;4.10;;;2.13;;
58992;SDS011;44782;0.000;0.000;2023-12-20T11:26:27;3.03;;;2.00;;
58992;SDS011;44782;0.000;0.000;2023-12-20T11:28:44;4.43;;;2.03;;
58992;SDS011;44782;0.000;0.000;2023-12-20T11:31:01;3.07;;;1.97;;
58992;SDS011;44782;0.000;0.000;2023-12-20T11:33:21;2.37;;;1.90;;
58992;SDS011;44782;0.000;0.000;2023-12-20T11:35:39;2.27;;;1.70;;
58992;SDS011;44782;0.000;0.000;2023-12-20T11:37:55;2.43;;;1.77;;
58992;SDS011;44782;0.000;0.000;2023-12-20T11:40:14;3.70;;;1.80;;
58992;SDS011;44782;0.000;0.000;2023-12-20T11:42:38;2.20;;;1.70;;
58992;SDS011;44782;0.000;0.000;2023-12-20T11:44:55;4.80;;;1.80;;
58992;SDS011;44782;0.000;0.000;2023-12-20T11:47:12;2.87;;;1.80;;
58992;SDS011;44782;0.000;0.000;2023-12-20T11:49:28;3.10;;;2.00;;
58992;SDS011;44782;0.000;0.000;2023-12-20T11:51:45;3.80;;;1.97;;
58992;SDS011;44782;0.000;0.000;2023-12-20T11:54:01;2.87;;;1.70;;
58992;SDS011;44782;0.000;0.000;2023-12-20T11:56:17;4.23;;;2.10;;
58992;SDS011;44782;0.000;0.000;2023-12-20T11:58:36;3.53;;;2.00;;
58992;SDS011;44782;0.000;0.000;2023-12-20T12:00:52;4.20;;;1.90;;
58992;SDS011;44782;0.000;0.000;2023-12-20T12:03:07;3.10;;;2.07;;
58992;SDS011;44782;0.000;0.000;2023-12-20T12:05:23;3.67;;;2.00;;
58992;SDS011;44782;0.000;0.000;2023-12-20T12:07:39;2.77;;;1.90;;
58992;SDS011;44782;0.000;0.000;2023-12-20T12:09:55;5.00;;;2.00;;
58992;SDS011;44782;0.000;0.000;2023-12-20T12:12:11;4.37;;;2.10;;
58992;SDS011;44782;0.000;0.000;2023-12-20T12:14:27;3.60;;;2.00;;
58992;SDS011;44782;0.000;0.000;2023-12-20T12:16:43;6.17;;;2.27;;
58992;SDS011;44782;0.000;0.000;2023-12-20T12:18:59;2.57;;;1.80;;
58992;SDS011;44782;0.000;0.000;2023-12-20T12:21:19;3.50;;;1.80;;
58992;SDS011;44782;0.000;0.000;2023-12-20T12:23:35;2.70;;;1.80;;
58992;SDS011;44782;0.000;0.000;2023-12-20T12:25:51;3.13;;;1.70;;
58992;SDS011;44782;0.000;0.000;2023-12-20T12:28:07;2.33;;;1.53;;
58992;SDS011;44782;0.000;0.000;2023-12-20T12:30:24;3.80;;;1.60;;
58992;SDS011;44782;0.000;0.000;2023-12-20T12:32:43;3.80;;;1.80;;
58992;SDS011;44782;0.000;0.000;2023-12-20T12:35:05;2.83;;;1.80;;
58992;SDS011;44782;0.000;0.000;2023-12-20T12:37:22;2.83;;;1.73;;
58992;SDS011;44782;0.000;0.000;2023-12-20T12:39:40;2.47;;;1.87;;
58992;SDS011;44782;0.000;0.000;2023-12-20T12:41:56;3.63;;;1.67;;
58992;SDS011;44782;0.000;0.000;2023-12-20T12:44:12;3.37;;;1.70;;
58992;SDS011;44782;0.000;0.000;2023-12-20T12:46:28;2.53;;;1.63;;
58992;SDS011;44782;0.000;0.000;2023-12-20T12:48:43;1.80;;;1.60;;
58992;SDS011;44782;0.000;0.000;2023-12-20T12:51:00;2.73;;;1.80;;
58992;SDS011;44782;0.000;0.000;2023-12-20T12:53:15;2.30;;;1.60;;
58992;SDS011;44782;0.000;0.000;2023-12-20T12:55:32;3.10;;;2.00;;
58992;SDS011;44782;0.000;0.000;2023-12-20T12:57:48;2.87;;;1.80;;
58992;SDS011;44782;0.000;0.000;2023-12-20T13:00:04;1.70;;;1.50;;
58992;SDS011;44782;0.000;0.000;2023-12-20T13:02:23;2.20;;;1.57;;
58992;SDS011;44782;0.000;0.000;2023-12-20T13:04:39;2.50;;;1.67;;
58992;SDS011;44782;0.000;0.000;2023-12-20T13:06:56;2.70;;;1.60;;
58992;SDS011;44782;0.000;0.000;2023-12-20T13:09:12;3.13;;;1.90;;
58992;SDS011;44782;0.000;0.000;2023-12-20T13:11:28;1.87;;;1.53;;
58992;SDS011;44782;0.000;0.000;2023-12-20T13:13:44;3.07;;;1.90;;
58992;SDS011;44782;0.000;0.000;2023-12-20T13:16:00;2.77;;;1.70;;
58992;SDS011;44782;0.000;0.000;2023-12-20T13:18:17;2.10;;;1.50;;
58992;SDS011;44782;0.000;0.000;2023-12-20T13:20:36;3.13;;;1.80;;
58992;SDS011;44782;0.000;0.000;2023-12-20T13:22:55;3.17;;;1.70;;
58992;SDS011;44782;0.000;0.000;2023-12-20T13:25:13;3.23;;;1.70;;
58992;SDS011;44782;0.000;0.000;2023-12-20T13:27:30;2.30;;;1.50;;
58992;SDS011;44782;0.000;0.000;2023-12-20T13:29:49;2.40;;;1.70;;
58992;SDS011;44782;0.000;0.000;2023-12-20T13:32:06;1.93;;;1.67;;
58992;SDS011;44782;0.000;0.000;2023-12-20T13:34:23;2.47;;;1.60;;
58992;SDS011;44782;0.000;0.000;2023-12-20T13:36:39;2.30;;;1.60;;
58992;SDS011;44782;0.000;0.000;2023-12-20T13:38:56;1.80;;;1.50;;
58992;SDS011;44782;0.000;0.000;2023-12-20T13:41:13;2.10;;;1.57;;
58992;SDS011;44782;0.000;0.000;2023-12-20T13:43:32;1.83;;;1.53;;
58992;SDS011;44782;0.000;0.000;2023-12-20T13:45:50;1.73;;;1.57;;
58992;SDS011;44782;0.000;0.000;2023-12-20T13:48:06;2.20;;;1.60;;
58992;SDS011;44782;0.000;0.000;2023-12-20T13:50:22;2.10;;;1.70;;
58992;SDS011;44782;0.000;0.000;2023-12-20T13:52:38;1.83;;;1.50;;
58992;SDS011;44782;0.000;0.000;2023-12-20T13:54:55;2.53;;;1.80;;
58992;SDS011;44782;0.000;0.000;2023-12-20T13:57:13;2.07;;;1.70;;
58992;SDS011;44782;0.000;0.000;2023-12-20T13:59:31;2.20;;;1.70;;
58992;SDS011;44782;0.000;0.000;2023-12-20T14:01:52;2.03;;;1.53;;
58992;SDS011;44782;0.000;0.000;2023-12-20T14:04:12;1.90;;;1.70;;